Time;durP1;ratioP1;P1;durP2;ratioP2;P2;SDS_P1;SDS_P2;PMS_P1;PMS_P2;Temp;Humidity;BMP_temperature;BMP_pressure;BME280_temperature;BME280_humidity;BME280_pressure;Samples;Min_cycle;Max_cycle;Signal;HPM_P1;HPM_P2
2022/10/03 00:01:55;;;;;;;0.00;0.00;;;;;;;;;;5119220;28;20023;-73
2022/10/03 00:04:30;;;;;;;1.20;1.05;;;;;;;;;;5116552;28;20032;-73
2022/10/03 00:07:29;;;;;;;0.80;0.80;;;;;;;;;;5115787;28;20028;-73
2022/10/03 00:10:14;;;;;;;3.88;2.35;;;;;;;;;;5052224;28;20036;-72
2022/10/03 00:12:50;;;;;;;0.60;0.60;;;;;;;;;;5097677;28;20011;-72
2022/10/03 00:15:34;;;;;;;0.65;0.65;;;;;;;;;;5111512;28;20031;-73
2022/10/03 00:18:01;;;;;;;0.00;0.00;;;;;;;;;;5099369;28;20076;-73
2022/10/03 00:20:33;;;;;;;0.00;0.00;;;;;;;;;;5118847;28;20412;-73
2022/10/03 00:23:04;;;;;;;0.00;0.00;;;;;;;;;;5116404;28;20490;-74
2022/10/03 00:25:49;;;;;;;8.75;3.15;;;;;;;;;;5118927;28;20027;-73
2022/10/03 00:28:18;;;;;;;0.00;0.00;;;;;;;;;;5118475;28;20473;-73
2022/10/03 00:31:08;;;;;;;0.00;0.00;;;;;;;;;;5119124;28;20023;-73
2022/10/03 00:33:48;;;;;;;0.00;0.00;;;;;;;;;;5118301;28;20069;-73
2022/10/03 00:36:37;;;;;;;0.00;0.00;;;;;;;;;;5119027;28;20084;-73
2022/10/03 00:39:03;;;;;;;0.00;0.00;;;;;;;;;;5078847;28;20205;-74
2022/10/03 00:41:32;;;;;;;0.30;0.30;;;;;;;;;;5119235;28;20054;-74
2022/10/03 00:44:01;;;;;;;0.00;0.00;;;;;;;;;;5116213;28;20449;-73
2022/10/03 00:46:46;;;;;;;0.00;0.00;;;;;;;;;;5116659;28;20039;-72
2022/10/03 00:49:31;;;;;;;0.00;0.00;;;;;;;;;;5116457;28;20031;-73
2022/10/03 00:52:09;;;;;;;0.08;0.08;;;;;;;;;;5106119;28;20028;-73
2022/10/03 00:54:54;;;;;;;0.00;0.00;;;;;;;;;;5093915;28;20381;-73
2022/10/03 00:57:39;;;;;;;0.00;0.00;;;;;;;;;;5100343;28;20038;-72
2022/10/03 01:00:38;;;;;;;2.10;2.00;;;;;;;;;;5126740;28;20042;-73
2022/10/03 01:03:05;;;;;;;0.00;0.00;;;;;;;;;;5061482;28;20050;-73
2022/10/03 01:05:37;;;;;;;0.00;0.00;;;;;;;;;;5115896;28;20030;-72
2022/10/03 01:08:22;;;;;;;0.00;0.00;;;;;;;;;;5105237;28;20116;-72
2022/10/03 01:10:52;;;;;;;0.00;0.00;;;;;;;;;;5105621;28;20020;-73
2022/10/03 01:13:21;;;;;;;0.28;0.25;;;;;;;;;;5118720;28;20024;-73
2022/10/03 01:16:06;;;;;;;0.10;0.10;;;;;;;;;;5120263;28;20474;-73
2022/10/03 01:18:51;;;;;;;0.00;0.00;;;;;;;;;;5121450;28;20030;-72
2022/10/03 01:21:31;;;;;;;1.25;1.15;;;;;;;;;;5106787;28;20023;-72
2022/10/03 01:23:57;;;;;;;2.40;1.67;;;;;;;;;;5096539;28;20027;-72
2022/10/03 01:26:26;;;;;;;2.08;1.98;;;;;;;;;;5092412;28;20491;-72
2022/10/03 01:31:50;;;;;;;5.22;2.47;;;;;;;;;;5104096;28;20077;-73
2022/10/03 01:34:22;;;;;;;0.28;0.28;;;;;;;;;;5098853;28;20142;-74
2022/10/03 01:37:00;;;;;;;1.17;1.17;;;;;;;;;;5108620;28;20031;-74
2022/10/03 01:39:32;;;;;;;0.00;0.00;;;;;;;;;;5077635;28;20119;-72
2022/10/03 01:41:59;;;;;;;0.00;0.00;;;;;;;;;;5095429;28;20374;-72
2022/10/03 01:44:39;;;;;;;0.00;0.00;;;;;;;;;;5086469;28;20035;-73
2022/10/03 01:47:05;;;;;;;0.00;0.00;;;;;;;;;;5101667;28;20053;-73
2022/10/03 01:49:36;;;;;;;0.00;0.00;;;;;;;;;;5113592;28;20053;-72
2022/10/03 01:52:08;;;;;;;0.10;0.10;;;;;;;;;;5105929;28;20115;-72
2022/10/03 01:54:53;;;;;;;0.15;0.15;;;;;;;;;;5091303;28;20023;-73
2022/10/03 01:57:41;;;;;;;2.05;1.77;;;;;;;;;;5107296;28;20032;-73
2022/10/03 02:00:11;;;;;;;4.30;4.05;;;;;;;;;;5107638;28;20493;-73
2022/10/03 02:02:49;;;;;;;0.70;0.68;;;;;;;;;;5102851;28;20028;-72
2022/10/03 02:05:19;;;;;;;0.47;0.47;;;;;;;;;;5104935;28;20036;-72
2022/10/03 02:07:59;;;;;;;0.38;0.28;;;;;;;;;;5091940;28;20031;-73
2022/10/03 02:10:34;;;;;;;0.00;0.00;;;;;;;;;;5101610;28;20051;-74
2022/10/03 02:13:04;;;;;;;2.95;2.85;;;;;;;;;;5099255;28;20166;-73
2022/10/03 02:15:53;;;;;;;0.00;0.00;;;;;;;;;;5089287;28;20023;-72
2022/10/03 02:18:35;;;;;;;0.22;0.22;;;;;;;;;;5079091;28;20042;-75
2022/10/03 02:21:14;;;;;;;1.17;1.17;;;;;;;;;;5104288;28;20108;-75
2022/10/03 02:23:44;;;;;;;0.45;0.45;;;;;;;;;;5103987;28;20051;-75
2022/10/03 02:26:28;;;;;;;0.00;0.00;;;;;;;;;;5103531;28;20156;-75
2022/10/03 02:28:54;;;;;;;1.35;0.70;;;;;;;;;;5085224;28;20026;-75
2022/10/03 02:31:36;;;;;;;0.00;0.00;;;;;;;;;;5104432;28;20623;-75
2022/10/03 02:34:15;;;;;;;0.17;0.17;;;;;;;;;;5108367;27;20023;-73
2022/10/03 02:36:53;;;;;;;0.35;0.35;;;;;;;;;;5081244;28;20028;-76
2022/10/03 02:39:23;;;;;;;11.55;8.15;;;;;;;;;;5084370;28;20439;-77
2022/10/03 02:42:08;;;;;;;2.10;0.63;;;;;;;;;;5087382;28;20397;-77
2022/10/03 02:44:51;;;;;;;1.65;1.55;;;;;;;;;;5078487;28;20028;-76
2022/10/03 02:47:29;;;;;;;5.68;3.50;;;;;;;;;;5102839;27;20019;-76
2022/10/03 02:50:12;;;;;;;0.00;0.00;;;;;;;;;;5114589;27;20032;-78
2022/10/03 02:52:57;;;;;;;0.00;0.00;;;;;;;;;;5088345;28;20442;-78
2022/10/03 02:55:46;;;;;;;0.32;0.32;;;;;;;;;;5111126;28;20015;-82
2022/10/03 02:58:32;;;;;;;0.28;0.28;;;;;;;;;;5104951;28;20035;-76
2022/10/03 03:01:17;;;;;;;2.28;2.15;;;;;;;;;;5100583;27;20027;-78
2022/10/03 03:03:49;;;;;;;1.45;1.08;;;;;;;;;;5085658;27;20027;-80
2022/10/03 03:06:23;;;;;;;6.78;4.38;;;;;;;;;;5084325;28;20922;-76
2022/10/03 03:08:56;;;;;;;2.28;2.08;;;;;;;;;;5086234;28;20039;-75
2022/10/03 03:11:41;;;;;;;11.95;3.88;;;;;;;;;;5102124;28;20043;-77
2022/10/03 03:14:10;;;;;;;2.83;2.10;;;;;;;;;;5100121;28;20481;-74
2022/10/03 03:16:40;;;;;;;2.13;1.95;;;;;;;;;;5077276;28;20035;-76
2022/10/03 03:19:09;;;;;;;1.85;1.75;;;;;;;;;;5100385;28;20030;-75
2022/10/03 03:21:48;;;;;;;1.80;1.63;;;;;;;;;;5102807;28;20096;-77
2022/10/03 03:24:23;;;;;;;5.10;4.68;;;;;;;;;;5085107;28;20065;-79
2022/10/03 03:27:04;;;;;;;0.00;0.00;;;;;;;;;;5104367;28;20028;-77
2022/10/03 03:29:31;;;;;;;0.00;0.00;;;;;;;;;;5089395;28;20015;-77
2022/10/03 03:32:26;;;;;;;0.00;0.00;;;;;;;;;;5111240;28;20024;-74
2022/10/03 03:34:55;;;;;;;0.47;0.47;;;;;;;;;;5104063;28;20051;-75
2022/10/03 03:37:40;;;;;;;4.30;2.92;;;;;;;;;;5109543;27;20516;-79
2022/10/03 03:40:18;;;;;;;1.63;1.52;;;;;;;;;;5099655;28;20089;-75
2022/10/03 03:43:02;;;;;;;0.32;0.32;;;;;;;;;;5086309;28;20023;-73
2022/10/03 03:45:37;;;;;;;1.52;0.80;;;;;;;;;;5082224;28;20032;-74
2022/10/03 03:48:25;;;;;;;1.75;1.30;;;;;;;;;;5086045;28;20474;-74
2022/10/03 03:50:55;;;;;;;0.00;0.00;;;;;;;;;;5099825;28;20023;-75
2022/10/03 03:53:40;;;;;;;0.63;0.63;;;;;;;;;;5100911;28;20020;-75
2022/10/03 03:56:16;;;;;;;1.55;1.45;;;;;;;;;;5107627;28;20502;-74
2022/10/03 03:58:57;;;;;;;5.38;2.95;;;;;;;;;;5075400;28;20035;-72
2022/10/03 04:01:45;;;;;;;5.88;5.50;;;;;;;;;;5094714;28;20505;-75
2022/10/03 04:04:17;;;;;;;0.45;0.45;;;;;;;;;;5076952;28;20070;-74
2022/10/03 04:06:56;;;;;;;3.70;2.08;;;;;;;;;;5098570;28;21293;-76
2022/10/03 04:09:30;;;;;;;6.70;2.75;;;;;;;;;;5097428;28;20496;-73
2022/10/03 04:12:05;;;;;;;0.03;0.03;;;;;;;;;;5102475;28;20104;-75
2022/10/03 04:14:40;;;;;;;10.07;6.78;;;;;;;;;;5099368;28;20021;-76
2022/10/03 04:19:57;;;;;;;8.38;5.28;;;;;;;;;;5105274;28;20077;-77
2022/10/03 04:22:46;;;;;;;4.30;2.40;;;;;;;;;;5102591;28;20031;-74
2022/10/03 04:25:14;;;;;;;0.30;0.30;;;;;;;;;;5106212;28;20030;-73
2022/10/03 04:27:53;;;;;;;0.20;0.20;;;;;;;;;;5083743;28;20022;-74
2022/10/03 04:30:23;;;;;;;1.15;1.15;;;;;;;;;;5100419;28;20020;-75
2022/10/03 04:33:22;;;;;;;1.25;1.25;;;;;;;;;;5085988;28;20016;-73
2022/10/03 04:35:51;;;;;;;7.03;2.92;;;;;;;;;;5066139;28;20039;-72
2022/10/03 04:38:35;;;;;;;4.25;3.55;;;;;;;;;;5106880;28;20478;-75
2022/10/03 04:41:11;;;;;;;30.95;8.25;;;;;;;;;;5102792;28;21270;-73
2022/10/03 04:43:43;;;;;;;4.75;2.38;;;;;;;;;;5112105;27;20063;-76
2022/10/03 04:46:22;;;;;;;12.85;4.35;;;;;;;;;;5104092;28;20058;-74
2022/10/03 04:48:49;;;;;;;2.15;1.98;;;;;;;;;;5103051;28;20012;-73
2022/10/03 04:51:24;;;;;;;8.23;3.50;;;;;;;;;;5098592;28;20023;-73
2022/10/03 04:53:55;;;;;;;29.65;7.63;;;;;;;;;;5082405;28;20024;-75
2022/10/03 04:56:27;;;;;;;7.13;3.88;;;;;;;;;;5105357;28;20024;-76
2022/10/03 04:58:57;;;;;;;15.27;6.53;;;;;;;;;;5108298;28;20023;-74
2022/10/03 05:01:33;;;;;;;12.52;5.80;;;;;;;;;;5105283;28;20058;-75
2022/10/03 05:04:19;;;;;;;1.45;1.13;;;;;;;;;;5080955;28;20109;-73
2022/10/03 05:07:07;;;;;;;8.30;3.58;;;;;;;;;;5103637;28;20715;-75
2022/10/03 05:09:33;;;;;;;1.65;1.65;;;;;;;;;;5098682;28;20020;-74
2022/10/03 05:12:19;;;;;;;0.08;0.08;;;;;;;;;;5099049;28;20758;-73
2022/10/03 05:14:48;;;;;;;0.65;0.65;;;;;;;;;;5097344;28;20035;-74
2022/10/03 05:17:44;;;;;;;3.97;2.35;;;;;;;;;;5100540;28;20028;-74
2022/10/03 05:20:10;;;;;;;10.50;8.05;;;;;;;;;;5085901;28;20115;-75
2022/10/03 05:22:55;;;;;;;6.97;2.05;;;;;;;;;;5081906;28;20040;-75
2022/10/03 05:25:21;;;;;;;4.10;3.75;;;;;;;;;;5098052;27;20117;-75
2022/10/03 05:27:51;;;;;;;3.47;1.75;;;;;;;;;;5111787;27;20033;-74
2022/10/03 05:30:34;;;;;;;11.80;4.20;;;;;;;;;;5112058;27;20020;-76
2022/10/03 05:33:07;;;;;;;0.25;0.25;;;;;;;;;;5081401;28;20187;-77
2022/10/03 05:35:39;;;;;;;0.13;0.10;;;;;;;;;;5103398;28;20028;-79
2022/10/03 05:38:05;;;;;;;2.72;1.00;;;;;;;;;;5097556;27;20096;-76
2022/10/03 05:40:36;;;;;;;5.47;3.08;;;;;;;;;;5076796;28;20052;-76
2022/10/03 05:43:10;;;;;;;4.55;0.82;;;;;;;;;;5098537;28;20051;-77
2022/10/03 05:45:44;;;;;;;3.03;1.58;;;;;;;;;;5108764;28;20027;-79
2022/10/03 05:48:33;;;;;;;5.63;3.00;;;;;;;;;;5103313;28;20049;-78
2022/10/03 05:51:32;;;;;;;0.98;0.98;;;;;;;;;;5080664;28;20024;-78
2022/10/03 05:54:17;;;;;;;0.03;0.03;;;;;;;;;;5099490;28;20386;-79
2022/10/03 05:56:50;;;;;;;2.85;0.98;;;;;;;;;;5103601;27;20088;-76
2022/10/03 05:59:36;;;;;;;12.32;5.72;;;;;;;;;;5100104;28;20043;-76
2022/10/03 06:02:02;;;;;;;11.18;4.28;;;;;;;;;;5094920;28;20020;-76
2022/10/03 06:04:57;;;;;;;3.88;2.22;;;;;;;;;;5101962;28;20053;-76
2022/10/03 06:07:45;;;;;;;2.20;2.00;;;;;;;;;;5067979;28;20050;-77
2022/10/03 06:10:14;;;;;;;26.30;6.55;;;;;;;;;;5105847;27;20032;-76
2022/10/03 06:13:03;;;;;;;2.72;1.10;;;;;;;;;;5103207;28;20028;-74
2022/10/03 06:15:48;;;;;;;0.00;0.00;;;;;;;;;;5101014;27;20424;-74
2022/10/03 06:18:26;;;;;;;0.00;0.00;;;;;;;;;;5096456;28;20015;-74
2022/10/03 06:20:52;;;;;;;2.72;2.63;;;;;;;;;;5078946;28;20470;-73
2022/10/03 06:23:27;;;;;;;3.03;2.33;;;;;;;;;;5100661;27;20020;-72
2022/10/03 06:25:56;;;;;;;25.88;6.97;;;;;;;;;;5093482;28;20027;-72
2022/10/03 06:28:37;;;;;;;7.05;4.07;;;;;;;;;;5098501;28;20043;-74
2022/10/03 06:31:22;;;;;;;1.30;1.20;;;;;;;;;;5098013;28;20028;-70
2022/10/03 06:34:01;;;;;;;2.33;2.13;;;;;;;;;;5093825;28;20099;-73
2022/10/03 06:36:27;;;;;;;0.00;0.00;;;;;;;;;;5093628;28;20027;-72
2022/10/03 06:39:12;;;;;;;0.00;0.00;;;;;;;;;;5075369;28;20108;-72
2022/10/03 06:41:48;;;;;;;2.28;1.58;;;;;;;;;;5100788;27;20044;-73
2022/10/03 06:44:14;;;;;;;0.43;0.43;;;;;;;;;;5100675;28;20032;-74
2022/10/03 06:46:40;;;;;;;0.22;0.22;;;;;;;;;;5096569;28;20551;-76
2022/10/03 06:49:29;;;;;;;8.52;3.53;;;;;;;;;;5074697;28;20043;-73
2022/10/03 06:52:15;;;;;;;4.50;1.77;;;;;;;;;;5082294;28;20028;-75
2022/10/03 06:54:53;;;;;;;0.00;0.00;;;;;;;;;;5087957;28;20389;-76
2022/10/03 06:57:22;;;;;;;2.40;1.60;;;;;;;;;;5087146;28;20120;-75
2022/10/03 07:00:08;;;;;;;3.38;3.17;;;;;;;;;;5099862;27;20386;-76
2022/10/03 07:02:34;;;;;;;2.20;1.95;;;;;;;;;;5081438;28;20118;-77
2022/10/03 07:05:19;;;;;;;1.23;1.20;;;;;;;;;;5078905;28;20035;-74
2022/10/03 07:08:24;;;;;;;0.43;0.38;;;;;;;;;;5084948;28;20047;-74
2022/10/03 07:11:01;;;;;;;38.92;2.55;;;;;;;;;;5015436;28;20030;-74
2022/10/03 07:13:47;;;;;;;1.38;1.30;;;;;;;;;;5005003;28;20281;-73
2022/10/03 07:16:31;;;;;;;2.08;1.92;;;;;;;;;;5054484;28;20028;-75
2022/10/03 07:19:04;;;;;;;3.30;2.30;;;;;;;;;;5080626;28;20531;-74
2022/10/03 07:21:38;;;;;;;8.15;3.20;;;;;;;;;;5095694;28;20030;-74
2022/10/03 07:24:05;;;;;;;0.00;0.00;;;;;;;;;;5092083;28;20031;-75
2022/10/03 07:26:52;;;;;;;1.20;1.10;;;;;;;;;;5100848;28;20103;-73
2022/10/03 07:29:37;;;;;;;0.20;0.20;;;;;;;;;;5093881;28;20119;-73
2022/10/03 07:32:11;;;;;;;0.00;0.00;;;;;;;;;;5097876;27;20273;-74
2022/10/03 07:34:43;;;;;;;0.30;0.30;;;;;;;;;;5079304;28;20478;-74
2022/10/03 07:40:03;;;;;;;2.55;2.35;;;;;;;;;;5090865;28;20082;-73
2022/10/03 07:42:46;;;;;;;1.75;1.70;;;;;;;;;;5078103;28;20020;-72
2022/10/03 07:45:29;;;;;;;0.20;0.20;;;;;;;;;;5089575;28;20389;-71
2022/10/03 07:48:18;;;;;;;12.57;2.67;;;;;;;;;;5082000;28;20097;-70
2022/10/03 07:50:58;;;;;;;5.50;3.53;;;;;;;;;;5090342;28;20046;-70
2022/10/03 07:53:39;;;;;;;8.85;5.20;;;;;;;;;;5072349;28;20028;-68
2022/10/03 07:56:24;;;;;;;0.43;0.43;;;;;;;;;;5096477;28;20066;-69
2022/10/03 07:58:53;;;;;;;3.50;2.80;;;;;;;;;;5091660;28;20148;-70
2022/10/03 08:01:34;;;;;;;3.88;3.67;;;;;;;;;;5091736;28;20032;-70
2022/10/03 08:04:19;;;;;;;2.47;2.38;;;;;;;;;;5095488;28;20093;-70
2022/10/03 08:06:54;;;;;;;7.00;2.83;;;;;;;;;;5093228;28;20107;-72
2022/10/03 08:09:50;;;;;;;0.00;0.00;;;;;;;;;;5081315;27;20034;-72
2022/10/03 08:12:30;;;;;;;0.75;0.70;;;;;;;;;;5082819;28;20040;-71
2022/10/03 08:15:08;;;;;;;3.63;1.77;;;;;;;;;;5097694;28;20034;-74
2022/10/03 08:17:48;;;;;;;4.13;3.92;;;;;;;;;;5102931;27;20062;-71
2022/10/03 08:20:30;;;;;;;1.45;1.35;;;;;;;;;;5102776;27;20056;-72
2022/10/03 08:23:15;;;;;;;0.00;0.00;;;;;;;;;;5100487;27;20401;-72
2022/10/03 08:25:44;;;;;;;4.82;3.15;;;;;;;;;;5086629;28;21566;-73
2022/10/03 08:28:21;;;;;;;0.20;0.20;;;;;;;;;;5079702;28;20027;-73
2022/10/03 08:31:10;;;;;;;4.38;2.08;;;;;;;;;;5095828;27;20401;-71
2022/10/03 08:33:54;;;;;;;0.52;0.52;;;;;;;;;;5060664;28;20047;-71
2022/10/03 08:36:35;;;;;;;0.63;0.63;;;;;;;;;;5101403;28;20028;-72
2022/10/03 08:39:20;;;;;;;0.75;0.38;;;;;;;;;;5094122;27;20032;-73
2022/10/03 08:41:46;;;;;;;20.00;1.38;;;;;;;;;;5093391;28;20257;-74
2022/10/03 08:44:28;;;;;;;0.00;0.00;;;;;;;;;;5080579;28;20105;-75
2022/10/03 08:46:54;;;;;;;4.40;2.30;;;;;;;;;;5095584;28;21458;-74
2022/10/03 08:49:39;;;;;;;1.63;1.05;;;;;;;;;;5101552;28;20019;-73
2022/10/03 08:52:20;;;;;;;0.80;0.70;;;;;;;;;;5102960;27;20153;-74
2022/10/03 08:55:05;;;;;;;0.00;0.00;;;;;;;;;;5096938;27;20035;-75
2022/10/03 08:57:46;;;;;;;2.38;1.08;;;;;;;;;;5102022;27;20034;-74
2022/10/03 09:00:16;;;;;;;0.77;0.77;;;;;;;;;;5079422;28;21613;-73
2022/10/03 09:02:45;;;;;;;6.03;4.22;;;;;;;;;;5103474;27;20101;-73
2022/10/03 09:05:21;;;;;;;1.85;1.75;;;;;;;;;;5082445;28;20027;-76
2022/10/03 09:08:06;;;;;;;0.00;0.00;;;;;;;;;;5080509;28;20393;-72
2022/10/03 09:10:33;;;;;;;3.40;1.73;;;;;;;;;;5080989;28;20024;-73
2022/10/03 09:13:05;;;;;;;0.10;0.10;;;;;;;;;;5076797;28;20024;-72
2022/10/03 09:15:44;;;;;;;1.67;1.58;;;;;;;;;;5103201;27;20035;-73
2022/10/03 09:18:26;;;;;;;0.00;0.00;;;;;;;;;;5100887;27;20024;-72
2022/10/03 09:21:11;;;;;;;0.00;0.00;;;;;;;;;;5094510;27;20103;-72
2022/10/03 09:23:37;;;;;;;0.25;0.25;;;;;;;;;;5102482;27;20023;-73
2022/10/03 09:26:22;;;;;;;0.80;0.80;;;;;;;;;;5078621;27;20766;-72
2022/10/03 09:29:13;;;;;;;1.98;0.60;;;;;;;;;;5082244;27;20028;-72
2022/10/03 09:32:00;;;;;;;0.00;0.00;;;;;;;;;;5098689;27;20023;-73
2022/10/03 09:34:27;;;;;;;0.20;0.20;;;;;;;;;;5099842;27;20038;-73
2022/10/03 09:37:08;;;;;;;0.00;0.00;;;;;;;;;;5086402;27;20425;-73
2022/10/03 09:40:02;;;;;;;0.10;0.10;;;;;;;;;;5096059;28;20531;-72
2022/10/03 09:42:47;;;;;;;0.00;0.00;;;;;;;;;;5091267;28;20042;-73
2022/10/03 09:45:13;;;;;;;0.28;0.17;;;;;;;;;;5079353;28;20028;-72
2022/10/03 09:47:58;;;;;;;0.45;0.45;;;;;;;;;;5083615;28;20028;-71
2022/10/03 09:50:37;;;;;;;1.27;0.45;;;;;;;;;;5079663;28;20383;-76
2022/10/03 09:53:12;;;;;;;0.10;0.10;;;;;;;;;;5068727;28;20027;-74
2022/10/03 09:55:54;;;;;;;0.00;0.00;;;;;;;;;;5085395;28;20016;-74
2022/10/03 09:58:39;;;;;;;0.00;0.00;;;;;;;;;;5080866;28;20028;-74
2022/10/03 10:01:24;;;;;;;0.00;0.00;;;;;;;;;;5082957;28;20050;-72
2022/10/03 10:04:18;;;;;;;3.10;1.65;;;;;;;;;;5055306;28;20032;-73
2022/10/03 10:07:03;;;;;;;0.08;0.08;;;;;;;;;;5076940;28;20038;-74
2022/10/03 10:09:45;;;;;;;2.22;1.95;;;;;;;;;;5083588;28;20025;-73
2022/10/03 10:12:17;;;;;;;0.00;0.00;;;;;;;;;;5072935;28;20078;-73
2022/10/03 10:14:52;;;;;;;0.00;0.00;;;;;;;;;;5087853;28;20054;-72
2022/10/03 10:17:18;;;;;;;0.00;0.00;;;;;;;;;;5075047;28;20040;-70
2022/10/03 10:19:57;;;;;;;0.00;0.00;;;;;;;;;;5083441;28;20032;-72
2022/10/03 10:22:41;;;;;;;0.88;0.80;;;;;;;;;;5082513;28;20077;-72
2022/10/03 10:25:21;;;;;;;0.00;0.00;;;;;;;;;;5079642;28;20498;-72
2022/10/03 10:28:17;;;;;;;0.00;0.00;;;;;;;;;;5061968;28;20474;-73
2022/10/03 10:30:46;;;;;;;3.05;1.77;;;;;;;;;;5061098;28;20031;-73
2022/10/03 10:33:33;;;;;;;0.00;0.00;;;;;;;;;;5079747;28;20036;-75
2022/10/03 10:36:17;;;;;;;0.00;0.00;;;;;;;;;;5034619;28;20036;-75
2022/10/03 10:38:53;;;;;;;0.25;0.25;;;;;;;;;;5077564;28;20032;-74
2022/10/03 10:41:22;;;;;;;0.10;0.10;;;;;;;;;;5096140;28;20048;-72
2022/10/03 10:44:04;;;;;;;0.00;0.00;;;;;;;;;;5090275;28;20495;-73
2022/10/03 10:46:49;;;;;;;0.00;0.00;;;;;;;;;;5097957;28;20478;-73
2022/10/03 10:49:25;;;;;;;0.00;0.00;;;;;;;;;;5099281;28;20040;-73
2022/10/03 10:52:12;;;;;;;0.10;0.10;;;;;;;;;;5102033;27;20020;-72
2022/10/03 10:54:44;;;;;;;0.00;0.00;;;;;;;;;;5105401;28;20055;-72
2022/10/03 10:57:17;;;;;;;0.00;0.00;;;;;;;;;;5094274;28;20565;-72
2022/10/03 10:59:52;;;;;;;0.90;0.90;;;;;;;;;;5088887;28;20028;-72
2022/10/03 11:02:18;;;;;;;0.00;0.00;;;;;;;;;;5087894;28;20024;-73
2022/10/03 11:05:05;;;;;;;0.20;0.20;;;;;;;;;;5097343;27;20027;-73
2022/10/03 11:07:51;;;;;;;0.00;0.00;;;;;;;;;;5097415;27;20374;-72
2022/10/03 11:10:27;;;;;;;0.00;0.00;;;;;;;;;;5105407;27;20026;-73
2022/10/03 11:13:03;;;;;;;0.85;0.85;;;;;;;;;;5079384;28;20070;-73
2022/10/03 11:15:29;;;;;;;2.63;2.53;;;;;;;;;;5076073;28;20020;-72
2022/10/03 11:17:56;;;;;;;1.98;1.95;;;;;;;;;;5101301;27;20020;-73
2022/10/03 11:20:47;;;;;;;0.20;0.10;;;;;;;;;;5099699;28;20091;-73
2022/10/03 11:23:13;;;;;;;0.17;0.17;;;;;;;;;;5097449;28;20020;-73
2022/10/03 11:25:46;;;;;;;1.52;1.45;;;;;;;;;;5094522;28;20666;-74
2022/10/03 11:28:31;;;;;;;1.30;1.20;;;;;;;;;;5086688;28;20520;-73
2022/10/03 11:31:08;;;;;;;3.33;3.13;;;;;;;;;;5082985;28;20043;-73
2022/10/03 11:33:53;;;;;;;7.53;3.92;;;;;;;;;;5081158;28;20028;-75
2022/10/03 11:36:26;;;;;;;7.20;2.58;;;;;;;;;;5102981;27;20024;-73
2022/10/03 11:39:06;;;;;;;2.38;2.17;;;;;;;;;;5086373;28;20032;-76
2022/10/03 11:41:44;;;;;;;1.40;1.35;;;;;;;;;;5065896;28;20048;-73
2022/10/03 11:44:13;;;;;;;0.08;0.08;;;;;;;;;;5060238;28;20032;-74
2022/10/03 11:46:47;;;;;;;0.00;0.00;;;;;;;;;;5065791;28;20510;-73
2022/10/03 11:49:14;;;;;;;7.32;4.15;;;;;;;;;;5075957;28;20052;-74
2022/10/03 11:51:43;;;;;;;10.63;4.40;;;;;;;;;;5036854;28;20398;-74
2022/10/03 11:54:33;;;;;;;4.65;2.33;;;;;;;;;;5064112;28;20027;-75
2022/10/03 11:57:01;;;;;;;0.10;0.10;;;;;;;;;;5071429;28;20032;-73
2022/10/03 11:59:46;;;;;;;1.63;1.60;;;;;;;;;;5058597;28;20035;-74
2022/10/03 12:02:12;;;;;;;14.07;5.65;;;;;;;;;;5074505;28;20030;-74
2022/10/03 12:04:39;;;;;;;4.38;1.95;;;;;;;;;;5073501;28;20036;-76
2022/10/03 12:10:11;;;;;;;0.30;0.30;;;;;;;;;;5076922;28;20030;-77
2022/10/03 12:12:38;;;;;;;0.20;0.20;;;;;;;;;;5058602;28;20116;-76
2022/10/03 12:15:18;;;;;;;0.00;0.00;;;;;;;;;;5078989;28;20024;-76
2022/10/03 12:17:49;;;;;;;0.52;0.52;;;;;;;;;;5077508;28;20031;-75
2022/10/03 12:20:16;;;;;;;1.45;0.90;;;;;;;;;;5081626;28;20100;-75
2022/10/03 12:22:48;;;;;;;3.05;2.78;;;;;;;;;;5065283;28;20100;-76
2022/10/03 12:25:18;;;;;;;6.10;5.35;;;;;;;;;;5066558;28;20032;-76
2022/10/03 12:27:47;;;;;;;0.70;0.70;;;;;;;;;;5065167;28;20028;-75
2022/10/03 12:30:15;;;;;;;0.98;0.98;;;;;;;;;;5089439;28;20065;-76
2022/10/03 12:32:51;;;;;;;2.38;1.70;;;;;;;;;;5069322;28;20035;-77
2022/10/03 12:35:28;;;;;;;0.00;0.00;;;;;;;;;;5089690;28;20023;-76
2022/10/03 12:38:17;;;;;;;0.32;0.32;;;;;;;;;;5084448;28;20025;-77
2022/10/03 12:40:48;;;;;;;2.38;2.17;;;;;;;;;;5094710;28;20072;-75
2022/10/03 12:43:23;;;;;;;1.77;1.67;;;;;;;;;;5081116;28;20024;-76
2022/10/03 12:46:01;;;;;;;6.05;2.55;;;;;;;;;;5085969;28;20050;-74
2022/10/03 12:48:30;;;;;;;0.22;0.22;;;;;;;;;;5111919;28;20020;-75
2022/10/03 12:51:15;;;;;;;0.88;0.88;;;;;;;;;;5111367;28;20045;-75
2022/10/03 12:53:42;;;;;;;0.00;0.00;;;;;;;;;;5101174;28;20086;-76
2022/10/03 12:56:27;;;;;;;0.00;0.00;;;;;;;;;;5103222;28;20054;-75
2022/10/03 12:58:56;;;;;;;0.00;0.00;;;;;;;;;;5103028;28;20016;-75
2022/10/03 13:01:22;;;;;;;0.00;0.00;;;;;;;;;;5112580;28;20103;-75
2022/10/03 13:03:54;;;;;;;0.10;0.10;;;;;;;;;;5113717;28;20032;-75
2022/10/03 13:06:20;;;;;;;0.17;0.17;;;;;;;;;;5078427;28;20078;-76
2022/10/03 13:09:04;;;;;;;0.22;0.22;;;;;;;;;;5104782;28;20104;-75
2022/10/03 13:11:49;;;;;;;0.00;0.00;;;;;;;;;;5099643;28;20161;-76
2022/10/03 13:14:30;;;;;;;0.20;0.20;;;;;;;;;;5103627;28;20023;-75
2022/10/03 13:17:16;;;;;;;0.00;0.00;;;;;;;;;;5106430;28;20145;-74
2022/10/03 13:19:45;;;;;;;0.05;0.05;;;;;;;;;;5113936;28;20023;-74
2022/10/03 13:22:11;;;;;;;0.00;0.00;;;;;;;;;;5111290;28;20035;-74
2022/10/03 13:24:50;;;;;;;0.00;0.00;;;;;;;;;;5091332;28;20059;-75
2022/10/03 13:27:17;;;;;;;0.00;0.00;;;;;;;;;;5111104;28;20513;-75
2022/10/03 13:29:50;;;;;;;0.20;0.20;;;;;;;;;;5093338;28;20023;-74
2022/10/03 13:32:32;;;;;;;0.00;0.00;;;;;;;;;;5113732;28;20020;-75
2022/10/03 13:37:56;;;;;;;6.40;5.88;;;;;;;;;;5107992;28;20512;-75
2022/10/03 13:40:25;;;;;;;3.25;2.92;;;;;;;;;;5100933;28;20119;-77
2022/10/03 13:42:52;;;;;;;0.98;0.95;;;;;;;;;;5092993;28;20024;-76
2022/10/03 13:45:24;;;;;;;0.30;0.30;;;;;;;;;;5083679;28;20024;-75
2022/10/03 13:47:54;;;;;;;0.10;0.10;;;;;;;;;;5081939;28;20035;-75
2022/10/03 13:50:35;;;;;;;0.00;0.00;;;;;;;;;;5096271;28;20028;-75
2022/10/03 13:53:01;;;;;;;0.00;0.00;;;;;;;;;;5103852;28;20004;-75
2022/10/03 13:55:31;;;;;;;0.00;0.00;;;;;;;;;;5095618;28;20078;-75
2022/10/03 13:57:57;;;;;;;0.03;0.03;;;;;;;;;;5090349;28;20505;-75
2022/10/03 14:00:25;;;;;;;0.47;0.47;;;;;;;;;;5088785;28;20470;-75
2022/10/03 14:03:00;;;;;;;1.88;1.80;;;;;;;;;;5073756;28;20059;-75
2022/10/03 14:05:50;;;;;;;0.00;0.00;;;;;;;;;;5072994;28;20078;-75
2022/10/03 14:08:28;;;;;;;5.13;4.72;;;;;;;;;;5089418;28;20031;-75
2022/10/03 14:11:09;;;;;;;1.38;1.38;;;;;;;;;;5072317;28;20103;-75
2022/10/03 14:13:55;;;;;;;0.00;0.00;;;;;;;;;;5075965;28;20394;-76
2022/10/03 14:16:27;;;;;;;3.00;2.83;;;;;;;;;;5073983;28;20417;-75
2022/10/03 14:19:16;;;;;;;1.15;1.15;;;;;;;;;;5091088;28;20043;-75
2022/10/03 14:21:55;;;;;;;3.22;3.03;;;;;;;;;;5086292;28;20069;-75
2022/10/03 14:24:26;;;;;;;0.00;0.00;;;;;;;;;;5090418;28;20024;-76
2022/10/03 14:27:10;;;;;;;0.05;0.05;;;;;;;;;;5090881;28;20028;-75
2022/10/03 14:29:56;;;;;;;68.97;61.97;;;;;;;;;;5070250;28;20614;-74
2022/10/03 14:32:44;;;;;;;9.18;4.32;;;;;;;;;;5093794;28;20024;-76
2022/10/03 14:35:22;;;;;;;0.00;0.00;;;;;;;;;;5084645;28;20671;-75
2022/10/03 14:37:54;;;;;;;0.00;0.00;;;;;;;;;;5074598;28;20110;-76
2022/10/03 14:40:50;;;;;;;0.10;0.10;;;;;;;;;;5094901;28;20078;-76
2022/10/03 14:43:33;;;;;;;0.65;0.65;;;;;;;;;;5081294;28;20038;-75
2022/10/03 14:46:01;;;;;;;0.93;0.88;;;;;;;;;;5091012;28;20036;-75
2022/10/03 14:48:30;;;;;;;0.00;0.00;;;;;;;;;;5101803;28;20104;-75
2022/10/03 14:51:04;;;;;;;0.00;0.00;;;;;;;;;;5083000;28;20043;-75
2022/10/03 14:53:30;;;;;;;0.00;0.00;;;;;;;;;;5084250;28;20016;-75
2022/10/03 14:56:05;;;;;;;0.00;0.00;;;;;;;;;;5088451;28;20107;-75
2022/10/03 14:59:07;;;;;;;0.00;0.00;;;;;;;;;;5088032;28;20024;-75
2022/10/03 15:01:34;;;;;;;0.00;0.00;;;;;;;;;;5025857;28;20113;-75
2022/10/03 15:04:03;;;;;;;0.00;0.00;;;;;;;;;;5003683;28;20058;-75
2022/10/03 15:06:35;;;;;;;2.65;2.17;;;;;;;;;;5021924;28;20134;-75
2022/10/03 15:09:12;;;;;;;0.00;0.00;;;;;;;;;;5027999;28;20202;-76
2022/10/03 15:11:46;;;;;;;0.20;0.20;;;;;;;;;;5081803;28;20027;-74
2022/10/03 15:14:13;;;;;;;1.02;0.95;;;;;;;;;;5077096;28;20077;-74
2022/10/03 15:16:51;;;;;;;0.00;0.00;;;;;;;;;;5100224;28;20020;-74
2022/10/03 15:19:19;;;;;;;0.00;0.00;;;;;;;;;;5101608;28;20027;-75
2022/10/03 15:21:46;;;;;;;0.00;0.00;;;;;;;;;;5083896;28;20106;-75
2022/10/03 15:24:18;;;;;;;0.00;0.00;;;;;;;;;;5102301;28;20076;-75
2022/10/03 15:26:48;;;;;;;0.00;0.00;;;;;;;;;;5079283;28;20020;-74
2022/10/03 15:29:16;;;;;;;0.25;0.25;;;;;;;;;;5084575;28;20031;-75
2022/10/03 15:31:47;;;;;;;0.00;0.00;;;;;;;;;;5106378;28;20363;-75
2022/10/03 15:34:26;;;;;;;0.00;0.00;;;;;;;;;;5104211;28;20035;-75
2022/10/03 15:36:55;;;;;;;0.00;0.00;;;;;;;;;;5080489;28;20382;-76
2022/10/03 15:39:27;;;;;;;0.00;0.00;;;;;;;;;;5104113;28;20047;-75
2022/10/03 15:42:03;;;;;;;0.00;0.00;;;;;;;;;;5101205;28;20052;-76
2022/10/03 15:44:38;;;;;;;0.00;0.00;;;;;;;;;;5080609;28;20029;-77
2022/10/03 15:47:27;;;;;;;0.00;0.00;;;;;;;;;;5094696;28;20008;-76
2022/10/03 15:50:12;;;;;;;0.00;0.00;;;;;;;;;;5075798;28;20111;-76
2022/10/03 15:52:48;;;;;;;0.00;0.00;;;;;;;;;;5086076;28;20486;-76
2022/10/03 15:55:26;;;;;;;0.75;0.75;;;;;;;;;;5073798;28;20376;-75
2022/10/03 15:57:58;;;;;;;1.05;1.02;;;;;;;;;;5073190;28;20035;-76